Terminal Aerodrome Forecast
Issued by NWS

Home | Current Version | Previous Version | Text Only | Print | Product List | Glossary On
Versions: 1 2 3 4 5 6 7 8 9 10 11 12 13 14 15 16
000
FTUS42 KILM 061832 AAA
TAFCRE
TAF AMD
KCRE 061832Z 0619/0718 08010G15KT P6SM FEW045 BKN200
     FM070800 03011KT 6SM -RA VCSH FEW015 BKN040 OVC120
     FM071000 03016G23KT 3SM SHRA SCT006 BKN010 OVC080
      TEMPO 0711/0715 2SM +SHRA=

USA.gov is the U.S. government's official web portal to all federal, state and local government web resources and services.